Terminal Aerodrome Forecast
Issued by NWS

Home | Current Version | Previous Version | Text Only | Print | Product List | Glossary On
Versions: 1 2 3 4 5 6 7 8 9 10 11 12 13 14 15 16 17
000
FTUS41 KBTV 040520
TAFRUT
TAF
KRUT 040520Z 0406/0506 13006KT P6SM BKN120
     FM041200 13004KT P6SM VCSH BKN040 BKN120
     FM041500 21007KT 6SM SHRA BKN040
     FM042200 25007KT P6SM VCSH BKN060
      AMD NOT SKED=

USA.gov is the U.S. government's official web portal to all federal, state and local government web resources and services.